Time;durP1;ratioP1;P1;durP2;ratioP2;P2;SDS_P1;SDS_P2;PMS_P1;PMS_P2;Temp;Humidity;BMP_temperature;BMP_pressure;BME280_temperature;BME280_humidity;BME280_pressure;Samples;Min_cycle;Max_cycle;Signal;HPM_P1;HPM_P2
2022/10/09 00:01:22;;;;;;;;;7.75;7.75;;;;;10.79;70.41;102522.13;4946969;28;10407;-64
2022/10/09 00:03:51;;;;;;;;;11.75;11.50;;;;;10.77;70.33;102528.66;4953982;28;10551;-64
2022/10/09 00:06:27;;;;;;;;;10.75;10.75;;;;;10.74;70.09;102527.13;4935969;29;10650;-64
2022/10/09 00:08:53;;;;;;;;;10.75;8.75;;;;;10.73;70.80;102521.88;4953173;28;10773;-64
2022/10/09 00:11:25;;;;;;;;;8.75;5.50;;;;;10.70;70.79;102525.75;4938603;28;10561;-64
2022/10/09 00:13:53;;;;;;;;;10.50;8.25;;;;;10.69;70.50;102529.41;4952692;28;10535;-64
2022/10/09 00:16:20;;;;;;;;;11.50;9.00;;;;;10.68;70.54;102535.81;4951623;28;10424;-64
2022/10/09 00:18:47;;;;;;;;;14.25;10.00;;;;;10.70;70.75;102533.00;4953330;28;10748;-66
2022/10/09 00:21:29;;;;;;;;;6.00;6.00;;;;;10.71;70.65;102529.28;4936038;28;10543;-65
2022/10/09 00:23:58;;;;;;;;;10.75;10.75;;;;;10.68;70.24;102534.97;4953070;28;10430;-64
2022/10/09 00:26:24;;;;;;;;;11.25;10.25;;;;;10.65;70.04;102530.72;4935374;29;10513;-64
2022/10/09 00:28:51;;;;;;;;;9.00;8.25;;;;;10.63;70.59;102535.44;4956690;28;10725;-64
2022/10/09 00:31:18;;;;;;;;;10.75;9.00;;;;;10.63;70.14;102530.91;4945113;28;10566;-64
2022/10/09 00:33:45;;;;;;;;;9.00;8.00;;;;;10.64;70.51;102534.44;4952600;28;10509;-65
2022/10/09 00:36:18;;;;;;;;;9.00;8.00;;;;;10.62;70.75;102526.50;4950219;28;10491;-64
2022/10/09 00:38:44;;;;;;;;;10.50;10.50;;;;;10.66;70.68;102528.91;4953060;28;10405;-64
2022/10/09 00:41:15;;;;;;;;;12.00;9.00;;;;;10.66;70.73;102510.06;4936512;28;10862;-64
2022/10/09 00:43:47;;;;;;;;;15.00;9.25;;;;;10.65;70.73;102522.66;4943954;28;10607;-64
2022/10/09 00:46:26;;;;;;;;;8.75;8.75;;;;;10.66;70.99;102518.13;4945694;28;10561;-64
2022/10/09 00:49:19;;;;;;;;;11.50;9.00;;;;;10.62;70.92;102515.75;4951077;28;10395;-64
2022/10/09 00:51:48;;;;;;;;;12.25;9.50;;;;;10.59;70.55;102515.19;4933993;29;10665;-64
2022/10/09 00:54:19;;;;;;;;;12.75;10.50;;;;;10.55;70.36;102511.97;4935558;28;10668;-64
2022/10/09 00:56:46;;;;;;;;;10.50;10.50;;;;;10.54;70.46;102523.75;4934829;28;11324;-65
2022/10/09 00:59:13;;;;;;;;;11.75;8.75;;;;;10.51;71.05;102518.66;4951244;28;10797;-65
2022/10/09 01:01:40;;;;;;;;;10.25;10.25;;;;;10.49;70.78;102514.41;4944628;28;10532;-64
2022/10/09 01:04:07;;;;;;;;;13.50;11.75;;;;;10.48;70.54;102515.41;4945081;28;10679;-65
2022/10/09 01:06:59;;;;;;;;;12.25;10.00;;;;;10.47;71.05;102519.13;4932533;28;10833;-63
2022/10/09 01:09:53;;;;;;;;;9.00;8.25;;;;;10.43;70.91;102518.56;4935502;28;10649;-63
2022/10/09 01:12:31;;;;;;;;;9.75;9.75;;;;;10.42;70.79;102518.72;4951599;28;10543;-62
2022/10/09 01:15:15;;;;;;;;;11.00;11.00;;;;;10.39;70.82;102517.19;4949127;28;10648;-63
2022/10/09 01:17:57;;;;;;;;;10.75;9.25;;;;;10.36;70.81;102515.63;4946525;28;10691;-63
2022/10/09 01:20:30;;;;;;;;;10.00;9.50;;;;;10.34;70.90;102517.63;4942034;29;10610;-64
2022/10/09 01:23:21;;;;;;;;;12.75;9.50;;;;;10.32;70.83;102522.31;4933661;29;11401;-64
2022/10/09 01:26:25;;;;;;;;;9.75;9.50;;;;;10.32;70.78;102513.41;4950611;28;11484;-63
2022/10/09 01:28:56;;;;;;;;;11.75;10.50;;;;;10.27;70.72;102510.31;4934100;29;10813;-66
2022/10/09 01:31:27;;;;;;;;;9.75;9.75;;;;;10.26;70.86;102508.63;4950004;28;10702;-65
2022/10/09 01:33:53;;;;;;;;;8.00;8.00;;;;;10.24;71.03;102505.19;4950836;28;10673;-64
2022/10/09 01:36:22;;;;;;;;;11.50;9.00;;;;;10.27;70.76;102507.63;4945367;28;10548;-65
2022/10/09 01:38:49;;;;;;;;;7.25;6.00;;;;;10.26;71.13;102500.56;4952969;28;10561;-65
2022/10/09 01:41:16;;;;;;;;;14.75;12.25;;;;;10.25;70.94;102506.91;4935046;28;10656;-64
2022/10/09 01:43:43;;;;;;;;;7.00;7.00;;;;;10.23;71.05;102498.13;4941284;28;10665;-64
2022/10/09 01:46:19;;;;;;;;;12.25;10.00;;;;;10.21;71.36;102495.59;4952039;28;10634;-65
2022/10/09 01:48:54;;;;;;;;;5.75;5.00;;;;;10.17;71.22;102488.81;4947545;28;10716;-65
2022/10/09 01:51:26;;;;;;;;;9.75;9.25;;;;;10.18;71.08;102487.81;4946404;28;10706;-64
2022/10/09 01:53:55;;;;;;;;;9.00;9.00;;;;;10.15;71.34;102482.72;4952568;28;10676;-64
2022/10/09 01:56:25;;;;;;;;;13.50;11.50;;;;;10.14;71.44;102472.97;4936093;28;10660;-64
2022/10/09 01:58:56;;;;;;;;;8.75;7.75;;;;;10.13;71.27;102474.81;4950886;28;10683;-64
2022/10/09 02:01:27;;;;;;;;;7.00;6.00;;;;;10.13;71.07;102476.69;4945085;28;10559;-65
2022/10/09 02:03:57;;;;;;;;;10.25;8.50;;;;;10.10;71.46;102463.50;4952022;28;10478;-65
2022/10/09 02:06:26;;;;;;;;;11.75;10.00;;;;;10.09;71.13;102468.06;4950694;29;10493;-65
2022/10/09 02:08:54;;;;;;;;;7.50;7.00;;;;;10.06;70.81;102471.03;4934793;28;11312;-65
2022/10/09 02:11:24;;;;;;;;;10.75;9.00;;;;;10.03;71.15;102465.94;4949802;29;10666;-65
2022/10/09 02:13:53;;;;;;;;;13.00;9.00;;;;;10.04;71.11;102469.47;4948418;28;10815;-65
2022/10/09 02:16:27;;;;;;;;;12.00;9.00;;;;;10.01;71.15;102473.34;4947053;28;10816;-65
2022/10/09 02:19:09;;;;;;;;;11.00;10.25;;;;;10.01;71.57;102473.34;4950807;28;10576;-65
2022/10/09 02:21:41;;;;;;;;;8.00;8.00;;;;;10.00;71.04;102466.25;4951583;29;10769;-66
2022/10/09 02:24:18;;;;;;;;;9.25;6.50;;;;;9.98;71.21;102467.41;4950610;28;10635;-65
2022/10/09 02:26:45;;;;;;;;;11.00;9.25;;;;;9.98;71.20;102462.03;4932398;29;10629;-65
2022/10/09 02:29:14;;;;;;;;;8.00;8.00;;;;;9.95;71.28;102465.84;4940585;29;10774;-66
2022/10/09 02:31:42;;;;;;;;;7.50;7.50;;;;;9.94;71.30;102460.63;4951349;29;10706;-65
2022/10/09 02:34:11;;;;;;;;;8.50;8.00;;;;;9.94;71.85;102460.63;4950622;28;10581;-65
2022/10/09 02:36:39;;;;;;;;;9.00;8.00;;;;;9.91;71.01;102462.63;4932585;29;10644;-65
2022/10/09 02:39:06;;;;;;;;;9.00;9.00;;;;;9.90;71.72;102458.25;4932963;29;10708;-65
2022/10/09 02:41:33;;;;;;;;;8.00;6.50;;;;;9.89;71.54;102455.72;4932423;28;10722;-64
2022/10/09 02:44:00;;;;;;;;;11.00;9.50;;;;;9.89;71.60;102453.88;4945386;29;10640;-65
2022/10/09 02:46:27;;;;;;;;;9.00;9.00;;;;;9.87;71.65;102455.84;4950069;29;10764;-65
2022/10/09 02:48:53;;;;;;;;;13.75;4.25;;;;;9.86;71.45;102451.47;4951355;28;10673;-64
2022/10/09 02:51:20;;;;;;;;;8.50;8.50;;;;;9.87;71.44;102455.00;4933910;28;10601;-64
2022/10/09 02:53:47;;;;;;;;;10.50;7.75;;;;;9.83;71.39;102456.31;4967627;28;10637;-64
2022/10/09 02:56:13;;;;;;;;;10.00;8.00;;;;;9.83;71.31;102453.59;4939676;28;10651;-65
2022/10/09 02:58:40;;;;;;;;;12.00;9.00;;;;;9.83;71.67;102454.44;4955042;28;10699;-65
2022/10/09 03:01:07;;;;;;;;;5.00;5.00;;;;;9.82;71.43;102452.78;4937300;29;10987;-63
2022/10/09 03:03:33;;;;;;;;;12.00;8.00;;;;;9.80;71.67;102451.22;4941107;28;10792;-64
2022/10/09 03:06:04;;;;;;;;;11.50;8.00;;;;;9.79;71.86;102452.22;4940177;28;10645;-64
2022/10/09 03:08:31;;;;;;;;;13.25;10.25;;;;;9.78;71.36;102450.53;4935600;29;10682;-64
2022/10/09 03:10:57;;;;;;;;;12.00;7.00;;;;;9.77;71.76;102456.91;4951552;28;10821;-64
2022/10/09 03:13:24;;;;;;;;;11.50;7.50;;;;;9.73;71.69;102456.34;4943785;28;10746;-64
2022/10/09 03:15:50;;;;;;;;;8.75;8.00;;;;;9.71;71.31;102449.44;4951176;28;10758;-64
2022/10/09 03:18:17;;;;;;;;;14.00;11.00;;;;;9.69;71.88;102446.91;4954705;28;10629;-64
2022/10/09 03:20:43;;;;;;;;;13.50;9.25;;;;;9.69;71.99;102446.91;4952731;28;10819;-64
2022/10/09 03:23:10;;;;;;;;;8.75;6.50;;;;;9.66;71.85;102439.97;4954017;28;10782;-63
2022/10/09 03:25:37;;;;;;;;;6.25;6.25;;;;;9.66;71.45;102445.34;4942856;28;10611;-65
2022/10/09 03:28:03;;;;;;;;;10.00;7.00;;;;;9.65;71.71;102442.81;4954419;28;10720;-64
2022/10/09 03:30:30;;;;;;;;;11.00;8.00;;;;;9.64;71.92;102433.03;4943171;28;10723;-64
2022/10/09 03:32:56;;;;;;;;;6.00;6.00;;;;;9.62;72.24;102437.72;4941942;28;10621;-65
2022/10/09 03:35:22;;;;;;;;;12.50;8.75;;;;;9.60;72.17;102437.88;4942875;28;10615;-64
2022/10/09 03:37:49;;;;;;;;;7.50;7.50;;;;;9.61;72.26;102434.19;4935136;29;10860;-64
2022/10/09 03:40:15;;;;;;;;;7.50;6.00;;;;;9.59;71.69;102438.84;4950849;28;10630;-64
2022/10/09 03:42:42;;;;;;;;;9.00;7.75;;;;;9.57;71.51;102427.44;4959359;28;11230;-65
2022/10/09 03:45:08;;;;;;;;;10.75;8.25;;;;;9.56;71.48;102433.81;4952142;28;10780;-64
2022/10/09 03:47:35;;;;;;;;;7.00;7.00;;;;;9.55;72.10;102424.03;4952266;28;10712;-64
2022/10/09 03:50:01;;;;;;;;;9.25;8.00;;;;;9.54;71.86;102427.72;4946434;28;10769;-64
2022/10/09 03:52:27;;;;;;;;;6.50;6.50;;;;;9.56;72.01;102432.94;4939324;28;10710;-64
2022/10/09 03:54:54;;;;;;;;;10.00;8.00;;;;;9.55;71.84;102434.78;4942713;28;10535;-63
2022/10/09 03:57:20;;;;;;;;;7.50;7.50;;;;;9.52;71.27;102426.16;4952886;28;10879;-63
2022/10/09 03:59:47;;;;;;;;;7.00;7.00;;;;;9.50;71.99;102425.47;4950945;28;10625;-63
2022/10/09 04:02:13;;;;;;;;;9.75;9.75;;;;;9.48;71.62;102432.81;4947611;28;10780;-63
2022/10/09 04:04:40;;;;;;;;;9.50;8.50;;;;;9.46;72.04;102429.44;4948822;28;10663;-64
2022/10/09 04:07:06;;;;;;;;;8.00;7.25;;;;;9.46;72.06;102432.16;4934249;29;10790;-63
2022/10/09 04:09:33;;;;;;;;;8.25;8.00;;;;;9.43;71.60;102427.06;4937527;28;10840;-63
2022/10/09 04:11:59;;;;;;;;;12.00;10.00;;;;;9.40;71.37;102426.38;4951164;28;10730;-64
2022/10/09 04:14:25;;;;;;;;;9.75;7.50;;;;;9.40;71.70;102428.22;4939678;28;10995;-64
2022/10/09 04:16:52;;;;;;;;;8.00;8.00;;;;;9.40;71.66;102431.75;4953181;28;10715;-64
2022/10/09 04:19:19;;;;;;;;;9.50;9.50;;;;;9.40;71.70;102442.50;4951318;28;10813;-64
2022/10/09 04:21:45;;;;;;;;;7.00;6.50;;;;;9.37;71.30;102444.63;4935516;28;11334;-64
2022/10/09 04:24:11;;;;;;;;;11.00;7.75;;;;;9.37;71.81;102441.94;4952630;28;11050;-64
2022/10/09 04:26:38;;;;;;;;;7.50;7.50;;;;;9.37;71.50;102445.47;4944589;28;10786;-64
2022/10/09 04:29:04;;;;;;;;;10.50;9.00;;;;;9.36;71.58;102434.88;4951180;28;10846;-64
2022/10/09 04:31:31;;;;;;;;;8.00;8.00;;;;;9.38;71.90;102433.72;4950944;28;10835;-64
2022/10/09 04:33:57;;;;;;;;;7.00;7.00;;;;;9.41;72.56;102429.91;4953028;28;11705;-65
2022/10/09 04:36:24;;;;;;;;;7.75;6.25;;;;;9.41;71.97;102424.53;4935284;29;10630;-64
2022/10/09 04:38:51;;;;;;;;;5.25;5.00;;;;;9.48;72.49;102427.44;4937465;28;10638;-64
2022/10/09 04:41:18;;;;;;;;;6.50;6.50;;;;;9.50;71.84;102425.47;4942928;28;10706;-63
2022/10/09 04:43:44;;;;;;;;;10.00;9.25;;;;;9.49;72.04;102430.00;4952729;28;11522;-64
2022/10/09 04:46:13;;;;;;;;;6.25;5.00;;;;;9.53;72.18;102425.19;4955832;28;10817;-64
2022/10/09 04:48:41;;;;;;;;;9.75;8.00;;;;;9.54;72.80;102421.50;4963142;23;11486;-61
2022/10/09 04:51:09;;;;;;;;;6.50;6.00;;;;;9.54;72.91;102421.50;4952423;28;10827;-62
2022/10/09 04:53:36;;;;;;;;;11.00;10.00;;;;;9.56;72.70;102422.19;4953335;28;10558;-63
2022/10/09 04:56:06;;;;;;;;;9.25;5.00;;;;;9.61;72.73;102419.91;4953123;28;10810;-63
2022/10/09 04:58:38;;;;;;;;;9.50;9.50;;;;;9.63;72.44;102423.28;4956999;28;10749;-64
2022/10/09 05:01:14;;;;;;;;;10.00;8.50;;;;;9.64;72.52;102415.09;4933284;29;10836;-65
2022/10/09 05:03:41;;;;;;;;;8.25;8.25;;;;;9.65;72.52;102416.78;4934226;29;10639;-64
2022/10/09 05:06:09;;;;;;;;;7.25;7.00;;;;;9.64;72.64;102409.72;4934632;29;10714;-63
2022/10/09 05:08:37;;;;;;;;;10.50;7.50;;;;;9.64;72.87;102411.53;4938173;28;10715;-63
2022/10/09 05:11:09;;;;;;;;;8.00;7.00;;;;;9.63;72.75;102410.69;4934850;29;10851;-63
2022/10/09 05:13:38;;;;;;;;;8.25;8.00;;;;;9.63;72.78;102410.69;4935653;29;10734;-64
2022/10/09 05:16:08;;;;;;;;;7.50;5.00;;;;;9.63;73.06;102407.16;4935163;29;10721;-63
2022/10/09 05:18:39;;;;;;;;;8.25;8.00;;;;;9.60;72.71;102405.63;4935748;29;10645;-63
2022/10/09 05:21:06;;;;;;;;;10.25;10.25;;;;;9.61;72.73;102406.47;4936238;29;10756;-63
2022/10/09 05:23:32;;;;;;;;;10.75;7.25;;;;;9.62;72.63;102409.00;4937262;29;10748;-64
2022/10/09 05:26:03;;;;;;;;;11.00;9.00;;;;;9.61;72.79;102415.38;4935922;29;10827;-62
2022/10/09 05:28:29;;;;;;;;;7.50;6.75;;;;;9.62;73.50;102414.38;4936650;29;10756;-64
2022/10/09 05:30:55;;;;;;;;;9.75;7.25;;;;;9.60;73.29;102411.00;4936219;29;10787;-63
2022/10/09 05:33:22;;;;;;;;;9.50;9.50;;;;;9.59;73.41;102420.03;4934840;29;10832;-65
2022/10/09 05:35:53;;;;;;;;;8.25;8.25;;;;;9.59;72.98;102429.94;4932486;29;10706;-63
2022/10/09 05:38:21;;;;;;;;;9.50;8.50;;;;;9.56;73.08;102417.69;4932842;29;10646;-65
2022/10/09 05:41:11;;;;;;;;;7.00;7.00;;;;;9.57;73.46;102423.91;4933517;29;11471;-63
2022/10/09 05:43:41;;;;;;;;;6.00;6.00;;;;;9.56;72.99;102419.50;4934038;29;10676;-63
2022/10/09 05:46:10;;;;;;;;;6.50;6.50;;;;;9.56;73.22;102422.19;4931664;29;10723;-63
2022/10/09 05:48:38;;;;;;;;;8.00;8.00;;;;;9.55;73.05;102418.66;4942833;29;10728;-63
2022/10/09 05:51:26;;;;;;;;;9.00;8.25;;;;;9.58;73.03;102422.88;4931483;29;10787;-63
2022/10/09 05:53:53;;;;;;;;;14.50;10.75;;;;;9.60;73.03;102418.19;4934482;29;11334;-63
2022/10/09 05:56:22;;;;;;;;;9.00;9.00;;;;;9.54;73.08;102411.59;4934647;29;10785;-63
2022/10/09 05:58:55;;;;;;;;;8.00;6.00;;;;;9.54;72.92;102416.97;4933377;29;10815;-63
2022/10/09 06:01:24;;;;;;;;;8.50;7.50;;;;;9.56;73.43;102424.88;4938912;29;10630;-63
2022/10/09 06:03:53;;;;;;;;;6.50;6.00;;;;;9.54;73.19;102425.03;4933557;29;10639;-63
2022/10/09 06:06:21;;;;;;;;;9.00;7.25;;;;;9.55;72.89;102420.50;4932526;29;10869;-63
2022/10/09 06:08:48;;;;;;;;;8.75;8.25;;;;;9.55;73.26;102417.81;4933423;29;10801;-63
2022/10/09 06:11:17;;;;;;;;;9.00;8.75;;;;;9.56;73.53;102424.88;4932803;29;10817;-63
2022/10/09 06:13:44;;;;;;;;;7.25;7.25;;;;;9.55;73.46;102415.13;4929621;29;10739;-63
2022/10/09 06:16:12;;;;;;;;;9.50;9.50;;;;;9.54;72.97;102416.97;4931646;29;10763;-64
2022/10/09 06:18:41;;;;;;;;;10.25;10.25;;;;;9.54;73.80;102424.19;4933120;29;10721;-63
2022/10/09 06:21:14;;;;;;;;;12.50;10.50;;;;;9.54;72.97;102422.34;4932556;29;11123;-63
2022/10/09 06:23:41;;;;;;;;;8.25;7.75;;;;;9.55;73.24;102421.34;4933142;29;10919;-63
2022/10/09 06:26:11;;;;;;;;;10.50;10.50;;;;;9.56;73.84;102419.50;4932291;29;10715;-64
2022/10/09 06:28:39;;;;;;;;;10.50;8.00;;;;;9.61;73.56;102418.06;4933364;29;10735;-63
2022/10/09 06:31:10;;;;;;;;;9.50;9.00;;;;;9.68;73.64;102420.13;4935531;29;10800;-63
2022/10/09 06:33:39;;;;;;;;;12.75;11.75;;;;;9.67;73.39;102427.38;4935994;29;12142;-63
2022/10/09 06:36:08;;;;;;;;;11.00;10.25;;;;;9.69;73.57;102420.00;4935664;29;10850;-63
2022/10/09 06:38:37;;;;;;;;;9.00;9.00;;;;;9.71;73.00;102426.06;4936376;29;10746;-65
2022/10/09 06:41:06;;;;;;;;;9.75;7.00;;;;;9.72;73.39;102429.59;4935421;29;10646;-64
2022/10/09 06:43:32;;;;;;;;;11.00;9.50;;;;;9.73;73.11;102428.63;4934703;29;11254;-63
2022/10/09 06:46:00;;;;;;;;;10.75;8.25;;;;;9.72;72.94;102427.75;4934623;29;10791;-64
2022/10/09 06:48:29;;;;;;;;;14.25;8.50;;;;;9.72;73.68;102434.97;4935795;29;10848;-65
2022/10/09 06:51:04;;;;;;;;;10.50;9.25;;;;;9.71;73.22;102431.44;4936416;29;11596;-65
2022/10/09 06:53:40;;;;;;;;;7.25;6.50;;;;;9.73;73.61;102432.16;4934192;29;10793;-64
2022/10/09 06:56:10;;;;;;;;;7.50;5.50;;;;;9.72;73.50;102422.38;4935440;29;10779;-64
2022/10/09 06:58:38;;;;;;;;;13.50;10.00;;;;;9.73;73.68;102426.78;4944699;29;10567;-65
2022/10/09 07:01:11;;;;;;;;;10.75;9.00;;;;;9.74;73.30;102428.47;4935607;29;10813;-65
2022/10/09 07:03:40;;;;;;;;;11.50;11.50;;;;;9.76;73.44;102433.69;4933889;29;10866;-64
2022/10/09 07:06:10;;;;;;;;;12.50;10.75;;;;;9.75;73.73;102434.69;4935634;29;10774;-63
2022/10/09 07:08:39;;;;;;;;;11.25;9.50;;;;;9.75;73.61;102426.63;4935401;29;10586;-64
2022/10/09 07:11:13;;;;;;;;;7.25;7.25;;;;;9.76;73.44;102434.53;4935159;29;10655;-64
2022/10/09 07:13:41;;;;;;;;;9.00;9.00;;;;;9.76;73.79;102436.38;4933529;29;10832;-65
2022/10/09 07:16:09;;;;;;;;;9.25;8.75;;;;;9.83;73.68;102432.94;4935125;29;10623;-64
2022/10/09 07:18:37;;;;;;;;;11.00;6.25;;;;;9.84;73.41;102431.09;4935681;29;10796;-63
2022/10/09 07:21:06;;;;;;;;;8.75;8.75;;;;;9.84;73.18;102440.03;4934643;29;10698;-63
2022/10/09 07:23:34;;;;;;;;;9.75;8.00;;;;;9.83;73.36;102438.31;4935090;29;10613;-65
2022/10/09 07:26:01;;;;;;;;;6.50;4.00;;;;;9.83;73.06;102430.25;4933252;29;10702;-65
2022/10/09 07:28:28;;;;;;;;;5.25;4.75;;;;;9.86;72.88;102443.41;4934374;28;10935;-65
2022/10/09 07:30:55;;;;;;;;;11.50;7.50;;;;;9.89;73.24;102434.19;4934661;29;10480;-66
2022/10/09 07:33:22;;;;;;;;;12.50;11.75;;;;;9.92;73.07;102433.88;4934794;29;10738;-65
2022/10/09 07:35:55;;;;;;;;;8.00;7.00;;;;;9.93;73.55;102440.97;4934625;29;10761;-65
2022/10/09 07:38:26;;;;;;;;;7.00;7.00;;;;;9.95;73.23;102438.97;4932927;29;10623;-65
2022/10/09 07:40:52;;;;;;;;;7.25;6.75;;;;;9.99;73.50;102436.81;4931776;29;10637;-65
2022/10/09 07:43:20;;;;;;;;;8.00;8.00;;;;;10.01;73.34;102438.38;4932422;29;10497;-65
2022/10/09 07:45:47;;;;;;;;;8.00;8.00;;;;;10.08;73.45;102435.91;4932533;28;10548;-66
2022/10/09 07:48:13;;;;;;;;;6.50;6.00;;;;;10.13;73.08;102433.63;4933922;29;10436;-66
2022/10/09 07:50:39;;;;;;;;;12.75;8.50;;;;;10.14;72.52;102436.16;4929601;29;11399;-66
2022/10/09 07:53:07;;;;;;;;;5.00;5.00;;;;;10.16;72.81;102436.81;4935077;29;10519;-66
2022/10/09 07:55:34;;;;;;;;;6.25;6.25;;;;;10.21;72.50;102435.53;4933973;29;10497;-66
2022/10/09 07:58:00;;;;;;;;;7.00;5.00;;;;;10.27;72.47;102435.81;4934707;29;10572;-65
2022/10/09 08:00:27;;;;;;;;;7.75;7.75;;;;;10.30;72.37;102440.88;4932134;29;10499;-65
2022/10/09 08:02:54;;;;;;;;;9.25;5.00;;;;;10.32;71.85;102433.47;4934707;29;10430;-66
2022/10/09 08:05:20;;;;;;;;;7.00;6.25;;;;;10.36;72.15;102434.88;4934554;29;10441;-66
2022/10/09 08:07:46;;;;;;;;;6.00;6.00;;;;;10.39;71.77;102437.25;4934222;29;10338;-66
2022/10/09 08:10:13;;;;;;;;;6.75;6.75;;;;;10.39;72.16;102437.25;4933713;29;10300;-65
2022/10/09 08:12:39;;;;;;;;;11.50;8.75;;;;;10.45;71.78;102433.13;4934004;29;10327;-62
2022/10/09 08:15:06;;;;;;;;;6.75;5.75;;;;;10.49;71.52;102430.94;4936240;29;10425;-64
2022/10/09 08:17:33;;;;;;;;;6.75;5.00;;;;;10.54;71.58;102440.28;4930767;29;10368;-65
2022/10/09 08:19:59;;;;;;;;;7.00;5.75;;;;;10.62;71.22;102434.09;4932489;29;10353;-64
2022/10/09 08:22:26;;;;;;;;;8.00;5.00;;;;;10.63;71.53;102431.25;4933345;29;10271;-66
2022/10/09 08:24:52;;;;;;;;;12.25;5.75;;;;;10.71;70.87;102435.03;4931883;28;10228;-65
2022/10/09 08:27:18;;;;;;;;;5.00;5.00;;;;;10.74;70.91;102430.16;4925663;29;10288;-65
2022/10/09 08:29:45;;;;;;;;;8.00;8.00;;;;;10.82;70.79;102430.22;4936431;29;10266;-65
2022/10/09 08:32:11;;;;;;;;;5.00;5.00;;;;;10.87;70.90;102424.38;4926666;29;10274;-65
2022/10/09 08:34:38;;;;;;;;;10.00;7.50;;;;;10.91;70.93;102425.75;4933563;29;10449;-65
2022/10/09 08:37:04;;;;;;;;;10.75;8.75;;;;;10.93;71.02;102422.88;4932475;29;11060;-65
2022/10/09 08:39:31;;;;;;;;;6.50;6.00;;;;;10.99;71.00;102416.88;4933016;29;10443;-66
2022/10/09 08:42:02;;;;;;;;;4.00;4.00;;;;;11.09;70.48;102413.06;4933112;29;10931;-65
2022/10/09 08:44:38;;;;;;;;;2.75;2.75;;;;;11.14;70.61;102412.59;4931468;29;10155;-64
2022/10/09 08:47:22;;;;;;;;;7.25;6.50;;;;;11.14;70.56;102412.59;4933148;29;10162;-65
2022/10/09 08:50:19;;;;;;;;;7.25;5.25;;;;;11.20;70.54;102401.16;4932202;29;10272;-65
2022/10/09 08:52:54;;;;;;;;;4.00;4.00;;;;;11.25;69.77;102392.59;4932411;29;10097;-67
2022/10/09 08:55:25;;;;;;;;;6.00;3.00;;;;;11.28;69.98;102393.13;4932411;29;10058;-65
2022/10/09 08:58:01;;;;;;;;;7.50;6.00;;;;;11.35;70.10;102394.16;4932913;29;10172;-68
2022/10/09 09:00:37;;;;;;;;;4.00;4.00;;;;;11.42;70.05;102394.34;4932677;29;10113;-69
2022/10/09 09:03:43;;;;;;;;;7.00;5.00;;;;;11.50;69.81;102396.25;4933663;29;10808;-67
2022/10/09 09:06:34;;;;;;;;;6.50;6.50;;;;;11.53;69.87;102396.75;4933053;29;10128;-67
2022/10/09 09:09:15;;;;;;;;;5.75;5.50;;;;;11.57;70.04;102391.91;4933499;29;10043;-65
2022/10/09 09:11:49;;;;;;;;;9.25;5.00;;;;;11.61;69.54;102394.09;4932445;29;9957;-68
2022/10/09 09:14:25;;;;;;;;;4.50;4.50;;;;;11.65;69.36;102386.53;4933436;29;10125;-66
2022/10/09 09:17:17;;;;;;;;;6.50;5.25;;;;;11.68;69.43;102386.22;4933375;29;10076;-64
2022/10/09 09:20:11;;;;;;;;;5.00;5.00;;;;;11.73;69.44;102389.25;4932517;29;9965;-65
2022/10/09 09:22:44;;;;;;;;;5.75;4.00;;;;;11.76;69.29;102369.22;4929054;28;9963;-66
2022/10/09 09:25:24;;;;;;;;;3.50;3.00;;;;;11.80;69.27;102375.97;4932882;29;10946;-65
2022/10/09 09:27:53;;;;;;;;;6.75;5.00;;;;;11.85;69.29;102379.88;4931959;29;10692;-64
2022/10/09 09:30:24;;;;;;;;;7.50;5.00;;;;;11.92;68.85;102371.13;4943067;28;10450;-65
2022/10/09 09:33:00;;;;;;;;;3.25;1.75;;;;;11.98;68.70;102378.56;4915055;29;9934;-64
2022/10/09 09:35:48;;;;;;;;;3.00;3.00;;;;;12.01;68.64;102370.97;4925415;29;9807;-64
2022/10/09 09:38:15;;;;;;;;;5.75;5.00;;;;;12.06;68.58;102370.47;4933078;29;9881;-65
2022/10/09 09:40:43;;;;;;;;;4.00;3.00;;;;;12.09;68.22;102367.44;4932906;29;10795;-65
2022/10/09 09:43:19;;;;;;;;;3.25;3.25;;;;;12.12;68.28;102367.13;4932424;29;10197;-67
2022/10/09 09:45:46;;;;;;;;;5.75;3.00;;;;;12.17;67.69;102367.44;4932772;29;9775;-66
2022/10/09 09:48:34;;;;;;;;;6.00;2.50;;;;;12.18;67.91;102361.03;4930971;29;9904;-64
2022/10/09 09:51:04;;;;;;;;;3.00;3.00;;;;;12.22;67.57;102356.16;4932303;29;9871;-66
2022/10/09 09:53:54;;;;;;;;;2.00;2.00;;;;;12.26;67.64;102360.19;4932395;29;9696;-66
2022/10/09 09:56:33;;;;;;;;;4.00;4.00;;;;;12.27;67.51;102351.06;4932164;29;9729;-66
2022/10/09 09:59:28;;;;;;;;;5.00;4.50;;;;;12.31;66.95;102350.56;4932117;29;9756;-67
2022/10/09 10:02:22;;;;;;;;;3.50;3.50;;;;;12.34;67.19;102355.63;4932197;29;9781;-66
2022/10/09 10:04:51;;;;;;;;;3.50;3.50;;;;;12.37;67.27;102341.81;4931949;29;9811;-66
2022/10/09 10:07:28;;;;;;;;;2.50;2.50;;;;;12.40;67.16;102340.63;4930991;29;10551;-66
2022/10/09 10:10:14;;;;;;;;;2.00;2.00;;;;;12.45;66.37;102332.84;4931651;29;9858;-65
2022/10/09 10:12:51;;;;;;;;;3.00;2.00;;;;;12.52;66.66;102336.56;4928744;29;9984;-65
2022/10/09 10:15:30;;;;;;;;;2.00;2.00;;;;;12.58;66.54;102333.19;4932658;29;9758;-66
2022/10/09 10:18:11;;;;;;;;;5.00;5.00;;;;;12.64;66.06;102337.06;4931678;29;9720;-65
2022/10/09 10:20:47;;;;;;;;;3.00;3.00;;;;;12.66;65.51;102334.19;4932184;29;9723;-67
2022/10/09 10:23:50;;;;;;;;;4.00;4.00;;;;;12.71;65.34;102321.84;4930831;29;9799;-69
2022/10/09 10:26:30;;;;;;;;;1.00;1.00;;;;;12.78;65.25;102327.41;4931524;29;9757;-67
2022/10/09 10:29:04;;;;;;;;;3.00;2.75;;;;;12.79;65.27;102324.53;4929724;29;9724;-66
2022/10/09 10:31:40;;;;;;;;;4.00;2.50;;;;;12.81;65.24;102317.09;4931760;29;9713;-67
2022/10/09 10:34:15;;;;;;;;;2.00;2.00;;;;;12.84;64.73;102321.28;4932598;29;9713;-67
2022/10/09 10:36:43;;;;;;;;;2.00;2.00;;;;;12.88;64.88;102306.41;4931061;29;10461;-66
2022/10/09 10:39:23;;;;;;;;;4.00;2.00;;;;;12.94;64.92;102313.84;4931363;29;10536;-68
2022/10/09 10:41:52;;;;;;;;;7.00;4.00;;;;;12.97;64.35;102307.25;4928880;29;9705;-67
2022/10/09 10:44:48;;;;;;;;;5.25;5.25;;;;;13.01;64.24;102303.19;4915317;29;9822;-67
2022/10/09 10:47:22;;;;;;;;;2.00;2.00;;;;;13.04;63.96;102300.13;4914208;29;9724;-67
2022/10/09 10:49:49;;;;;;;;;6.50;5.50;;;;;13.07;63.52;102297.06;4932597;29;9697;-65
2022/10/09 10:52:38;;;;;;;;;5.00;4.75;;;;;13.02;62.94;102297.59;4936518;28;9753;-64
2022/10/09 10:55:20;;;;;;;;;3.50;3.50;;;;;13.11;63.36;102293.00;4932047;29;9582;-65
2022/10/09 10:57:52;;;;;;;;;4.00;4.00;;;;;13.21;62.45;102288.22;4932837;29;9561;-67
2022/10/09 11:00:20;;;;;;;;;4.25;2.00;;;;;13.24;62.79;102284.34;4930463;29;9553;-64
2022/10/09 11:02:53;;;;;;;;;3.00;3.00;;;;;13.28;62.88;102282.97;4932487;29;9576;-65
2022/10/09 11:05:25;;;;;;;;;8.75;4.75;;;;;13.36;62.38;102272.94;4931313;29;9560;-65
2022/10/09 11:08:12;;;;;;;;;3.00;3.00;;;;;13.36;62.25;102274.81;4939694;29;10542;-65
2022/10/09 11:11:00;;;;;;;;;7.00;7.00;;;;;13.33;62.53;102265.22;4931507;29;9486;-66
2022/10/09 11:13:52;;;;;;;;;5.00;5.00;;;;;13.33;62.54;102251.69;4932276;29;9630;-64
2022/10/09 11:16:39;;;;;;;;;5.00;5.00;;;;;13.38;62.66;102250.31;4934972;29;9529;-65
2022/10/09 11:19:36;;;;;;;;;3.00;3.00;;;;;13.36;61.68;102251.31;4935355;29;9557;-64
2022/10/09 11:22:33;;;;;;;;;7.50;5.00;;;;;13.36;61.15;102240.50;4932327;29;9584;-65
2022/10/09 11:25:03;;;;;;;;;4.00;3.25;;;;;13.45;61.34;102237.75;4933961;29;9705;-65
2022/10/09 11:27:39;;;;;;;;;6.50;5.50;;;;;13.48;60.85;102232.81;4934851;29;9389;-65
2022/10/09 11:30:14;;;;;;;;;5.50;5.50;;;;;13.51;61.27;102237.88;4934873;29;9567;-64
2022/10/09 11:33:04;;;;;;;;;7.25;7.25;;;;;13.53;61.15;102221.44;4934238;29;9735;-64
2022/10/09 11:35:39;;;;;;;;;2.50;2.00;;;;;13.59;61.11;102220.75;4935158;29;9547;-65
2022/10/09 11:38:22;;;;;;;;;5.75;5.75;;;;;13.63;61.60;102218.53;4933866;29;9567;-66
2022/10/09 11:40:49;;;;;;;;;7.75;6.00;;;;;13.61;61.50;102207.88;4933612;29;9690;-64
2022/10/09 11:43:18;;;;;;;;;9.50;9.50;;;;;13.58;60.58;102214.50;4934290;29;9611;-65
2022/10/09 11:46:05;;;;;;;;;9.50;8.50;;;;;13.62;60.43;102203.31;4934558;29;9723;-65
2022/10/09 11:48:47;;;;;;;;;7.50;7.50;;;;;13.64;60.25;102187.72;4932055;29;9812;-65